sensor_id;sensor_type;location;lat;lon;timestamp;temperature;humidity
21298;DHT22;10808;48.010;11.326;2022-12-10T00:01:53;3.00;99.90
21298;DHT22;10808;48.010;11.326;2022-12-10T00:04:21;3.00;99.90
21298;DHT22;10808;48.010;11.326;2022-12-10T00:06:47;2.90;99.90
21298;DHT22;10808;48.010;11.326;2022-12-10T00:09:17;2.90;99.90
21298;DHT22;10808;48.010;11.326;2022-12-10T00:11:44;2.90;99.90
21298;DHT22;10808;48.010;11.326;2022-12-10T00:14:11;2.90;99.90
21298;DHT22;10808;48.010;11.326;2022-12-10T00:16:38;3.00;99.90
21298;DHT22;10808;48.010;11.326;2022-12-10T00:19:04;3.00;99.90
21298;DHT22;10808;48.010;11.326;2022-12-10T00:21:32;3.00;99.90
21298;DHT22;10808;48.010;11.326;2022-12-10T00:23:59;3.00;99.90
21298;DHT22;10808;48.010;11.326;2022-12-10T00:26:35;3.00;99.90
21298;DHT22;10808;48.010;11.326;2022-12-10T00:29:03;3.00;99.90
21298;DHT22;10808;48.010;11.326;2022-12-10T00:31:31;3.00;99.90
21298;DHT22;10808;48.010;11.326;2022-12-10T00:34:00;3.00;99.90
21298;DHT22;10808;48.010;11.326;2022-12-10T00:36:32;3.00;99.90
21298;DHT22;10808;48.010;11.326;2022-12-10T00:38:59;3.00;99.90
21298;DHT22;10808;48.010;11.326;2022-12-10T00:41:26;3.00;99.90
21298;DHT22;10808;48.010;11.326;2022-12-10T00:43:52;3.00;99.90
21298;DHT22;10808;48.010;11.326;2022-12-10T00:46:32;3.00;99.90
21298;DHT22;10808;48.010;11.326;2022-12-10T00:48:59;2.90;99.90
21298;DHT22;10808;48.010;11.326;2022-12-10T00:51:27;3.00;99.90
21298;DHT22;10808;48.010;11.326;2022-12-10T00:53:54;3.00;99.90
21298;DHT22;10808;48.010;11.326;2022-12-10T00:56:23;3.00;99.90
21298;DHT22;10808;48.010;11.326;2022-12-10T00:58:50;2.90;99.90
21298;DHT22;10808;48.010;11.326;2022-12-10T01:01:25;2.90;99.90
21298;DHT22;10808;48.010;11.326;2022-12-10T01:03:55;3.00;99.90
21298;DHT22;10808;48.010;11.326;2022-12-10T01:06:23;2.90;99.90
21298;DHT22;10808;48.010;11.326;2022-12-10T01:08:50;3.00;99.90
21298;DHT22;10808;48.010;11.326;2022-12-10T01:11:18;2.90;99.90
21298;DHT22;10808;48.010;11.326;2022-12-10T01:13:46;2.90;99.90
21298;DHT22;10808;48.010;11.326;2022-12-10T01:16:14;2.90;99.90
21298;DHT22;10808;48.010;11.326;2022-12-10T01:18:41;2.80;99.90
21298;DHT22;10808;48.010;11.326;2022-12-10T01:21:10;2.90;99.90
21298;DHT22;10808;48.010;11.326;2022-12-10T01:23:38;2.90;99.90
21298;DHT22;10808;48.010;11.326;2022-12-10T01:26:11;2.90;99.90
21298;DHT22;10808;48.010;11.326;2022-12-10T01:28:39;2.90;99.90
21298;DHT22;10808;48.010;11.326;2022-12-10T01:31:08;2.90;99.90
21298;DHT22;10808;48.010;11.326;2022-12-10T01:33:35;2.90;99.90
21298;DHT22;10808;48.010;11.326;2022-12-10T01:36:03;2.90;99.90
21298;DHT22;10808;48.010;11.326;2022-12-10T01:38:29;2.90;99.90
21298;DHT22;10808;48.010;11.326;2022-12-10T01:40:55;2.90;99.90
21298;DHT22;10808;48.010;11.326;2022-12-10T01:43:21;2.80;99.90
21298;DHT22;10808;48.010;11.326;2022-12-10T01:45:47;2.90;99.90
21298;DHT22;10808;48.010;11.326;2022-12-10T01:48:14;2.90;99.90
21298;DHT22;10808;48.010;11.326;2022-12-10T01:50:40;2.90;99.90
21298;DHT22;10808;48.010;11.326;2022-12-10T01:53:06;2.90;99.90
21298;DHT22;10808;48.010;11.326;2022-12-10T01:55:51;2.80;99.90
21298;DHT22;10808;48.010;11.326;2022-12-10T01:58:18;2.80;99.90
21298;DHT22;10808;48.010;11.326;2022-12-10T02:04:01;2.80;99.90
21298;DHT22;10808;48.010;11.326;2022-12-10T02:09:20;2.80;99.90
21298;DHT22;10808;48.010;11.326;2022-12-10T02:12:02;2.80;99.90
21298;DHT22;10808;48.010;11.326;2022-12-10T02:20:24;2.90;99.90
21298;DHT22;10808;48.010;11.326;2022-12-10T02:22:57;2.90;99.90
21298;DHT22;10808;48.010;11.326;2022-12-10T02:25:29;2.90;99.90
21298;DHT22;10808;48.010;11.326;2022-12-10T02:30:56;2.90;99.90
21298;DHT22;10808;48.010;11.326;2022-12-10T02:33:23;2.90;99.90
21298;DHT22;10808;48.010;11.326;2022-12-10T02:35:51;2.80;99.90
21298;DHT22;10808;48.010;11.326;2022-12-10T02:38:23;2.80;99.90
21298;DHT22;10808;48.010;11.326;2022-12-10T02:40:53;2.90;99.90
21298;DHT22;10808;48.010;11.326;2022-12-10T02:43:23;2.90;99.90
21298;DHT22;10808;48.010;11.326;2022-12-10T02:45:50;2.80;99.90
21298;DHT22;10808;48.010;11.326;2022-12-10T02:48:18;2.80;99.90
21298;DHT22;10808;48.010;11.326;2022-12-10T02:50:44;2.80;99.90
21298;DHT22;10808;48.010;11.326;2022-12-10T02:53:10;2.80;99.90
21298;DHT22;10808;48.010;11.326;2022-12-10T02:58:30;2.80;99.90
21298;DHT22;10808;48.010;11.326;2022-12-10T03:01:17;2.80;99.90
21298;DHT22;10808;48.010;11.326;2022-12-10T03:03:53;2.80;99.90
21298;DHT22;10808;48.010;11.326;2022-12-10T03:08:56;2.80;99.90
21298;DHT22;10808;48.010;11.326;2022-12-10T03:11:24;2.80;99.90
21298;DHT22;10808;48.010;11.326;2022-12-10T03:14:04;2.80;99.90
21298;DHT22;10808;48.010;11.326;2022-12-10T03:16:40;2.80;99.90
21298;DHT22;10808;48.010;11.326;2022-12-10T03:19:11;2.80;99.90
21298;DHT22;10808;48.010;11.326;2022-12-10T03:21:39;2.90;99.90
21298;DHT22;10808;48.010;11.326;2022-12-10T03:24:08;2.80;99.90
21298;DHT22;10808;48.010;11.326;2022-12-10T03:26:36;2.80;99.90
21298;DHT22;10808;48.010;11.326;2022-12-10T03:29:09;2.80;99.90
21298;DHT22;10808;48.010;11.326;2022-12-10T03:31:38;2.80;99.90
21298;DHT22;10808;48.010;11.326;2022-12-10T03:34:06;2.80;99.90
21298;DHT22;10808;48.010;11.326;2022-12-10T03:36:33;2.90;99.90
21298;DHT22;10808;48.010;11.326;2022-12-10T03:39:00;2.90;99.90
21298;DHT22;10808;48.010;11.326;2022-12-10T03:41:26;2.90;99.90
21298;DHT22;10808;48.010;11.326;2022-12-10T03:43:57;2.90;99.90
21298;DHT22;10808;48.010;11.326;2022-12-10T03:46:25;2.90;99.90
21298;DHT22;10808;48.010;11.326;2022-12-10T03:48:52;2.90;99.90
21298;DHT22;10808;48.010;11.326;2022-12-10T03:51:20;2.80;99.90
21298;DHT22;10808;48.010;11.326;2022-12-10T03:53:46;2.90;99.90
21298;DHT22;10808;48.010;11.326;2022-12-10T03:56:14;2.80;99.90
21298;DHT22;10808;48.010;11.326;2022-12-10T03:58:40;2.80;99.90
21298;DHT22;10808;48.010;11.326;2022-12-10T04:01:07;2.90;99.90
21298;DHT22;10808;48.010;11.326;2022-12-10T04:03:38;2.90;99.90
21298;DHT22;10808;48.010;11.326;2022-12-10T04:06:07;2.80;99.90
21298;DHT22;10808;48.010;11.326;2022-12-10T04:08:34;2.80;99.90
21298;DHT22;10808;48.010;11.326;2022-12-10T04:11:08;2.90;99.90
21298;DHT22;10808;48.010;11.326;2022-12-10T04:13:36;2.90;99.90
21298;DHT22;10808;48.010;11.326;2022-12-10T04:16:22;2.90;99.90
21298;DHT22;10808;48.010;11.326;2022-12-10T04:18:59;2.90;99.90
21298;DHT22;10808;48.010;11.326;2022-12-10T04:21:27;2.90;99.90
21298;DHT22;10808;48.010;11.326;2022-12-10T04:24:13;2.90;99.90
21298;DHT22;10808;48.010;11.326;2022-12-10T04:27:01;2.90;99.90
21298;DHT22;10808;48.010;11.326;2022-12-10T04:29:29;2.80;99.90
21298;DHT22;10808;48.010;11.326;2022-12-10T04:31:56;2.80;99.90
21298;DHT22;10808;48.010;11.326;2022-12-10T04:34:23;2.80;99.90
21298;DHT22;10808;48.010;11.326;2022-12-10T04:36:50;2.80;99.90
21298;DHT22;10808;48.010;11.326;2022-12-10T04:39:17;2.80;99.90
21298;DHT22;10808;48.010;11.326;2022-12-10T04:41:45;2.80;99.90
21298;DHT22;10808;48.010;11.326;2022-12-10T04:44:11;2.80;99.90
21298;DHT22;10808;48.010;11.326;2022-12-10T04:46:38;2.80;99.90
21298;DHT22;10808;48.010;11.326;2022-12-10T04:49:04;2.70;99.90
21298;DHT22;10808;48.010;11.326;2022-12-10T04:51:31;2.70;99.90
21298;DHT22;10808;48.010;11.326;2022-12-10T04:53:58;2.70;99.90
21298;DHT22;10808;48.010;11.326;2022-12-10T04:56:24;2.70;99.90
21298;DHT22;10808;48.010;11.326;2022-12-10T04:58:50;2.80;99.90
21298;DHT22;10808;48.010;11.326;2022-12-10T05:01:17;2.70;99.90
21298;DHT22;10808;48.010;11.326;2022-12-10T05:03:44;2.70;99.90
21298;DHT22;10808;48.010;11.326;2022-12-10T05:06:12;2.70;99.90
21298;DHT22;10808;48.010;11.326;2022-12-10T05:08:39;2.70;99.90
21298;DHT22;10808;48.010;11.326;2022-12-10T05:11:09;2.70;99.90
21298;DHT22;10808;48.010;11.326;2022-12-10T05:13:36;2.70;99.90
21298;DHT22;10808;48.010;11.326;2022-12-10T05:16:04;2.70;99.90
21298;DHT22;10808;48.010;11.326;2022-12-10T05:18:31;2.70;99.90
21298;DHT22;10808;48.010;11.326;2022-12-10T05:21:02;2.70;99.90
21298;DHT22;10808;48.010;11.326;2022-12-10T05:23:30;2.70;99.90
21298;DHT22;10808;48.010;11.326;2022-12-10T05:26:08;2.80;99.90
21298;DHT22;10808;48.010;11.326;2022-12-10T05:28:36;2.70;99.90
21298;DHT22;10808;48.010;11.326;2022-12-10T05:31:03;2.70;99.90
21298;DHT22;10808;48.010;11.326;2022-12-10T05:33:30;2.60;99.90
21298;DHT22;10808;48.010;11.326;2022-12-10T05:35:58;2.70;99.90
21298;DHT22;10808;48.010;11.326;2022-12-10T05:38:25;2.60;99.90
21298;DHT22;10808;48.010;11.326;2022-12-10T05:40:52;2.60;99.90
21298;DHT22;10808;48.010;11.326;2022-12-10T05:43:18;2.60;99.90
21298;DHT22;10808;48.010;11.326;2022-12-10T05:45:45;2.60;99.90
21298;DHT22;10808;48.010;11.326;2022-12-10T05:48:12;2.60;99.90
21298;DHT22;10808;48.010;11.326;2022-12-10T05:50:39;2.70;99.90
21298;DHT22;10808;48.010;11.326;2022-12-10T05:53:05;2.70;99.90
21298;DHT22;10808;48.010;11.326;2022-12-10T05:55:31;2.70;99.90
21298;DHT22;10808;48.010;11.326;2022-12-10T05:57:59;2.70;99.90
21298;DHT22;10808;48.010;11.326;2022-12-10T06:00:29;2.80;99.90
21298;DHT22;10808;48.010;11.326;2022-12-10T06:02:55;2.80;99.90
21298;DHT22;10808;48.010;11.326;2022-12-10T06:05:21;2.70;99.90
21298;DHT22;10808;48.010;11.326;2022-12-10T06:07:47;2.70;99.90
21298;DHT22;10808;48.010;11.326;2022-12-10T06:10:13;2.70;99.90
21298;DHT22;10808;48.010;11.326;2022-12-10T06:12:39;2.70;99.90
21298;DHT22;10808;48.010;11.326;2022-12-10T06:15:05;2.70;99.90
21298;DHT22;10808;48.010;11.326;2022-12-10T06:17:31;2.70;99.90
21298;DHT22;10808;48.010;11.326;2022-12-10T06:19:58;2.70;99.90
21298;DHT22;10808;48.010;11.326;2022-12-10T06:22:24;2.70;99.90
21298;DHT22;10808;48.010;11.326;2022-12-10T06:24:50;2.70;99.90
21298;DHT22;10808;48.010;11.326;2022-12-10T06:27:16;2.70;99.90
21298;DHT22;10808;48.010;11.326;2022-12-10T06:29:43;2.80;99.90
21298;DHT22;10808;48.010;11.326;2022-12-10T06:32:09;2.70;99.90
21298;DHT22;10808;48.010;11.326;2022-12-10T06:34:35;2.80;99.90
21298;DHT22;10808;48.010;11.326;2022-12-10T06:37:01;2.80;99.90
21298;DHT22;10808;48.010;11.326;2022-12-10T06:39:27;2.80;99.90
21298;DHT22;10808;48.010;11.326;2022-12-10T06:41:53;2.80;99.90
21298;DHT22;10808;48.010;11.326;2022-12-10T06:44:19;2.90;99.90
21298;DHT22;10808;48.010;11.326;2022-12-10T06:46:45;2.80;99.90
21298;DHT22;10808;48.010;11.326;2022-12-10T06:49:11;2.80;99.90
21298;DHT22;10808;48.010;11.326;2022-12-10T06:51:37;2.70;99.90
21298;DHT22;10808;48.010;11.326;2022-12-10T06:54:04;2.70;99.90
21298;DHT22;10808;48.010;11.326;2022-12-10T06:56:31;2.70;99.90
21298;DHT22;10808;48.010;11.326;2022-12-10T06:58:57;2.70;99.90
21298;DHT22;10808;48.010;11.326;2022-12-10T07:01:24;2.70;99.90
21298;DHT22;10808;48.010;11.326;2022-12-10T07:03:55;2.70;99.90
21298;DHT22;10808;48.010;11.326;2022-12-10T07:06:22;2.70;99.90
21298;DHT22;10808;48.010;11.326;2022-12-10T07:08:50;2.70;99.90
21298;DHT22;10808;48.010;11.326;2022-12-10T07:11:18;2.80;99.90
21298;DHT22;10808;48.010;11.326;2022-12-10T07:13:44;2.70;99.90
21298;DHT22;10808;48.010;11.326;2022-12-10T07:16:12;2.70;99.90
21298;DHT22;10808;48.010;11.326;2022-12-10T07:18:39;2.70;99.90
21298;DHT22;10808;48.010;11.326;2022-12-10T07:21:24;2.70;99.90
21298;DHT22;10808;48.010;11.326;2022-12-10T07:23:52;2.60;99.90
21298;DHT22;10808;48.010;11.326;2022-12-10T07:26:19;2.70;99.90
21298;DHT22;10808;48.010;11.326;2022-12-10T07:28:46;2.70;99.90
21298;DHT22;10808;48.010;11.326;2022-12-10T07:31:12;2.70;99.90
21298;DHT22;10808;48.010;11.326;2022-12-10T07:33:38;2.70;99.90
21298;DHT22;10808;48.010;11.326;2022-12-10T07:36:09;2.70;99.90
21298;DHT22;10808;48.010;11.326;2022-12-10T07:38:36;2.70;99.90
21298;DHT22;10808;48.010;11.326;2022-12-10T07:41:07;2.70;99.90
21298;DHT22;10808;48.010;11.326;2022-12-10T07:43:35;2.60;99.90
21298;DHT22;10808;48.010;11.326;2022-12-10T07:46:10;2.70;99.90
21298;DHT22;10808;48.010;11.326;2022-12-10T07:48:38;2.60;99.90
21298;DHT22;10808;48.010;11.326;2022-12-10T07:51:04;2.70;99.90
21298;DHT22;10808;48.010;11.326;2022-12-10T07:53:31;2.70;99.90
21298;DHT22;10808;48.010;11.326;2022-12-10T07:55:57;2.70;99.90
21298;DHT22;10808;48.010;11.326;2022-12-10T07:58:23;2.70;99.90
21298;DHT22;10808;48.010;11.326;2022-12-10T08:00:49;2.70;99.90
21298;DHT22;10808;48.010;11.326;2022-12-10T08:03:15;2.80;99.90
21298;DHT22;10808;48.010;11.326;2022-12-10T08:05:41;2.70;99.90
21298;DHT22;10808;48.010;11.326;2022-12-10T08:08:08;2.70;99.90
21298;DHT22;10808;48.010;11.326;2022-12-10T08:10:40;2.70;99.90
21298;DHT22;10808;48.010;11.326;2022-12-10T08:13:06;2.70;99.90
21298;DHT22;10808;48.010;11.326;2022-12-10T08:15:32;2.70;99.90
21298;DHT22;10808;48.010;11.326;2022-12-10T08:17:58;2.60;99.90
21298;DHT22;10808;48.010;11.326;2022-12-10T08:20:25;2.60;99.90
21298;DHT22;10808;48.010;11.326;2022-12-10T08:22:51;2.60;99.90
21298;DHT22;10808;48.010;11.326;2022-12-10T08:25:17;2.60;99.90
21298;DHT22;10808;48.010;11.326;2022-12-10T08:27:43;2.70;99.90
21298;DHT22;10808;48.010;11.326;2022-12-10T08:30:10;2.70;99.90
21298;DHT22;10808;48.010;11.326;2022-12-10T08:32:36;2.70;99.90
21298;DHT22;10808;48.010;11.326;2022-12-10T08:35:02;2.70;99.90
21298;DHT22;10808;48.010;11.326;2022-12-10T08:37:28;2.70;99.90
21298;DHT22;10808;48.010;11.326;2022-12-10T08:39:57;2.60;99.90
21298;DHT22;10808;48.010;11.326;2022-12-10T08:42:23;2.60;99.90
21298;DHT22;10808;48.010;11.326;2022-12-10T08:44:49;2.60;99.90
21298;DHT22;10808;48.010;11.326;2022-12-10T08:47:17;2.60;99.90
21298;DHT22;10808;48.010;11.326;2022-12-10T08:49:44;2.60;99.90
21298;DHT22;10808;48.010;11.326;2022-12-10T08:52:10;2.60;99.90
21298;DHT22;10808;48.010;11.326;2022-12-10T08:54:36;2.60;99.90
21298;DHT22;10808;48.010;11.326;2022-12-10T08:57:02;2.60;99.90
21298;DHT22;10808;48.010;11.326;2022-12-10T08:59:28;2.60;99.90
21298;DHT22;10808;48.010;11.326;2022-12-10T09:01:54;2.60;99.90
21298;DHT22;10808;48.010;11.326;2022-12-10T09:04:20;2.60;99.90
21298;DHT22;10808;48.010;11.326;2022-12-10T09:06:46;2.60;99.90
21298;DHT22;10808;48.010;11.326;2022-12-10T09:09:12;2.70;99.90
21298;DHT22;10808;48.010;11.326;2022-12-10T09:11:38;2.70;99.90
21298;DHT22;10808;48.010;11.326;2022-12-10T09:14:04;2.70;99.90
21298;DHT22;10808;48.010;11.326;2022-12-10T09:16:32;2.60;99.90
21298;DHT22;10808;48.010;11.326;2022-12-10T09:18:59;2.70;99.90
21298;DHT22;10808;48.010;11.326;2022-12-10T09:21:25;2.70;99.90
21298;DHT22;10808;48.010;11.326;2022-12-10T09:23:52;2.60;99.90
21298;DHT22;10808;48.010;11.326;2022-12-10T09:26:19;2.70;99.90
21298;DHT22;10808;48.010;11.326;2022-12-10T09:28:46;2.70;99.90
21298;DHT22;10808;48.010;11.326;2022-12-10T09:31:14;2.70;99.90
21298;DHT22;10808;48.010;11.326;2022-12-10T09:33:41;2.60;99.90
21298;DHT22;10808;48.010;11.326;2022-12-10T09:36:08;2.70;99.90
21298;DHT22;10808;48.010;11.326;2022-12-10T09:38:36;2.70;99.90
21298;DHT22;10808;48.010;11.326;2022-12-10T09:44:27;2.70;99.90
21298;DHT22;10808;48.010;11.326;2022-12-10T09:46:59;2.70;99.90
21298;DHT22;10808;48.010;11.326;2022-12-10T09:52:36;2.60;99.90
21298;DHT22;10808;48.010;11.326;2022-12-10T09:55:10;2.70;99.90
21298;DHT22;10808;48.010;11.326;2022-12-10T09:57:52;2.70;99.90
21298;DHT22;10808;48.010;11.326;2022-12-10T10:00:37;2.60;99.90
21298;DHT22;10808;48.010;11.326;2022-12-10T10:03:13;2.60;99.90
21298;DHT22;10808;48.010;11.326;2022-12-10T10:05:52;2.70;99.90
21298;DHT22;10808;48.010;11.326;2022-12-10T10:08:23;2.70;99.90
21298;DHT22;10808;48.010;11.326;2022-12-10T10:10:59;2.70;99.90
21298;DHT22;10808;48.010;11.326;2022-12-10T10:13:46;2.70;99.90
21298;DHT22;10808;48.010;11.326;2022-12-10T10:16:26;2.60;99.90
21298;DHT22;10808;48.010;11.326;2022-12-10T10:19:00;2.60;99.90
21298;DHT22;10808;48.010;11.326;2022-12-10T10:21:45;2.70;99.90
21298;DHT22;10808;48.010;11.326;2022-12-10T10:24:21;2.70;99.90
21298;DHT22;10808;48.010;11.326;2022-12-10T10:26:53;2.70;99.90
21298;DHT22;10808;48.010;11.326;2022-12-10T10:29:22;2.70;99.90
21298;DHT22;10808;48.010;11.326;2022-12-10T10:32:21;2.70;99.90
21298;DHT22;10808;48.010;11.326;2022-12-10T10:34:53;2.80;99.90
21298;DHT22;10808;48.010;11.326;2022-12-10T10:37:29;2.90;99.90
21298;DHT22;10808;48.010;11.326;2022-12-10T10:39:56;2.90;99.90
21298;DHT22;10808;48.010;11.326;2022-12-10T10:44:54;2.90;99.90
21298;DHT22;10808;48.010;11.326;2022-12-10T10:47:29;2.80;99.90
21298;DHT22;10808;48.010;11.326;2022-12-10T10:49:55;2.90;99.90
21298;DHT22;10808;48.010;11.326;2022-12-10T10:52:22;2.90;99.90
21298;DHT22;10808;48.010;11.326;2022-12-10T10:54:48;2.80;99.90
21298;DHT22;10808;48.010;11.326;2022-12-10T10:57:28;2.80;99.90
21298;DHT22;10808;48.010;11.326;2022-12-10T11:00:10;2.90;99.90
21298;DHT22;10808;48.010;11.326;2022-12-10T11:02:43;2.90;99.90
21298;DHT22;10808;48.010;11.326;2022-12-10T11:05:23;2.80;99.90
21298;DHT22;10808;48.010;11.326;2022-12-10T11:08:01;2.80;99.90
21298;DHT22;10808;48.010;11.326;2022-12-10T11:10:28;2.80;99.90
21298;DHT22;10808;48.010;11.326;2022-12-10T11:13:02;2.80;99.90
21298;DHT22;10808;48.010;11.326;2022-12-10T11:15:36;2.80;99.90
21298;DHT22;10808;48.010;11.326;2022-12-10T11:21:05;2.90;99.90
21298;DHT22;10808;48.010;11.326;2022-12-10T11:23:40;2.90;99.90
21298;DHT22;10808;48.010;11.326;2022-12-10T11:29:21;2.90;99.90
21298;DHT22;10808;48.010;11.326;2022-12-10T11:32:08;2.90;99.90
21298;DHT22;10808;48.010;11.326;2022-12-10T11:34:55;3.00;99.90
21298;DHT22;10808;48.010;11.326;2022-12-10T11:54:55;3.10;99.90
21298;DHT22;10808;48.010;11.326;2022-12-10T12:00:00;3.10;99.90
21298;DHT22;10808;48.010;11.326;2022-12-10T12:08:34;2.80;99.90
21298;DHT22;10808;48.010;11.326;2022-12-10T12:11:20;2.80;99.90
21298;DHT22;10808;48.010;11.326;2022-12-10T12:14:14;2.80;99.90
21298;DHT22;10808;48.010;11.326;2022-12-10T12:16:59;2.90;99.90
21298;DHT22;10808;48.010;11.326;2022-12-10T12:19:34;2.90;99.90
21298;DHT22;10808;48.010;11.326;2022-12-10T12:22:15;3.00;99.90
21298;DHT22;10808;48.010;11.326;2022-12-10T12:24:44;2.90;99.90
21298;DHT22;10808;48.010;11.326;2022-12-10T12:27:35;2.90;99.90
21298;DHT22;10808;48.010;11.326;2022-12-10T12:30:05;2.80;99.90
21298;DHT22;10808;48.010;11.326;2022-12-10T12:32:53;2.80;99.90
21298;DHT22;10808;48.010;11.326;2022-12-10T12:35:38;2.70;99.90
21298;DHT22;10808;48.010;11.326;2022-12-10T12:38:29;2.80;99.90
21298;DHT22;10808;48.010;11.326;2022-12-10T12:41:09;2.70;99.90
21298;DHT22;10808;48.010;11.326;2022-12-10T12:46:09;2.80;99.90
21298;DHT22;10808;48.010;11.326;2022-12-10T12:48:53;2.80;99.90
21298;DHT22;10808;48.010;11.326;2022-12-10T12:51:59;2.80;99.90
21298;DHT22;10808;48.010;11.326;2022-12-10T12:54:26;2.70;99.90
21298;DHT22;10808;48.010;11.326;2022-12-10T12:57:18;2.60;99.90
21298;DHT22;10808;48.010;11.326;2022-12-10T13:04:47;2.70;99.90
21298;DHT22;10808;48.010;11.326;2022-12-10T13:09:50;2.60;99.90
21298;DHT22;10808;48.010;11.326;2022-12-10T13:12:30;2.50;99.90
21298;DHT22;10808;48.010;11.326;2022-12-10T13:17:33;2.40;99.90
21298;DHT22;10808;48.010;11.326;2022-12-10T13:20:28;2.50;99.90
21298;DHT22;10808;48.010;11.326;2022-12-10T13:23:26;2.50;99.90
21298;DHT22;10808;48.010;11.326;2022-12-10T13:31:16;2.40;99.90
21298;DHT22;10808;48.010;11.326;2022-12-10T13:36:33;2.30;99.90
21298;DHT22;10808;48.010;11.326;2022-12-10T13:41:30;2.30;99.90
21298;DHT22;10808;48.010;11.326;2022-12-10T13:47:21;2.30;99.90
21298;DHT22;10808;48.010;11.326;2022-12-10T13:52:43;2.30;99.90
21298;DHT22;10808;48.010;11.326;2022-12-10T14:00:32;2.20;99.90
21298;DHT22;10808;48.010;11.326;2022-12-10T14:05:56;2.20;99.90
21298;DHT22;10808;48.010;11.326;2022-12-10T14:08:29;2.20;99.90
21298;DHT22;10808;48.010;11.326;2022-12-10T14:10:58;2.20;99.90
21298;DHT22;10808;48.010;11.326;2022-12-10T14:13:37;2.10;99.90
21298;DHT22;10808;48.010;11.326;2022-12-10T14:16:09;2.10;99.90
21298;DHT22;10808;48.010;11.326;2022-12-10T14:18:36;2.10;99.90
21298;DHT22;10808;48.010;11.326;2022-12-10T14:21:05;2.00;99.90
21298;DHT22;10808;48.010;11.326;2022-12-10T14:23:33;2.00;99.90
21298;DHT22;10808;48.010;11.326;2022-12-10T14:26:05;1.90;99.90
21298;DHT22;10808;48.010;11.326;2022-12-10T14:28:31;1.90;99.90
21298;DHT22;10808;48.010;11.326;2022-12-10T14:30:59;1.90;99.90
21298;DHT22;10808;48.010;11.326;2022-12-10T14:33:25;1.80;99.90
21298;DHT22;10808;48.010;11.326;2022-12-10T14:35:52;1.80;99.90
21298;DHT22;10808;48.010;11.326;2022-12-10T14:38:20;1.80;99.90
21298;DHT22;10808;48.010;11.326;2022-12-10T14:40:47;1.90;99.90
21298;DHT22;10808;48.010;11.326;2022-12-10T14:43:17;1.90;99.90
21298;DHT22;10808;48.010;11.326;2022-12-10T14:45:45;1.90;99.90
21298;DHT22;10808;48.010;11.326;2022-12-10T14:48:13;1.90;99.90
21298;DHT22;10808;48.010;11.326;2022-12-10T14:50:39;1.80;99.90
21298;DHT22;10808;48.010;11.326;2022-12-10T14:53:14;1.80;99.90
21298;DHT22;10808;48.010;11.326;2022-12-10T14:55:40;1.80;99.90
21298;DHT22;10808;48.010;11.326;2022-12-10T14:58:13;1.70;99.90
21298;DHT22;10808;48.010;11.326;2022-12-10T15:00:40;1.70;99.90
21298;DHT22;10808;48.010;11.326;2022-12-10T15:03:25;1.70;99.90
21298;DHT22;10808;48.010;11.326;2022-12-10T15:06:01;1.70;99.90
21298;DHT22;10808;48.010;11.326;2022-12-10T15:08:29;1.70;99.90
21298;DHT22;10808;48.010;11.326;2022-12-10T15:10:57;1.70;99.90
21298;DHT22;10808;48.010;11.326;2022-12-10T15:13:29;1.60;99.90
21298;DHT22;10808;48.010;11.326;2022-12-10T15:15:58;1.60;99.90
21298;DHT22;10808;48.010;11.326;2022-12-10T15:18:37;1.60;99.90
21298;DHT22;10808;48.010;11.326;2022-12-10T15:23:33;1.70;99.90
21298;DHT22;10808;48.010;11.326;2022-12-10T15:26:02;1.70;99.90
21298;DHT22;10808;48.010;11.326;2022-12-10T15:28:34;1.70;99.90
21298;DHT22;10808;48.010;11.326;2022-12-10T15:33:58;1.60;99.90
21298;DHT22;10808;48.010;11.326;2022-12-10T15:39:23;1.60;99.90
21298;DHT22;10808;48.010;11.326;2022-12-10T15:41:56;1.60;99.90
21298;DHT22;10808;48.010;11.326;2022-12-10T15:44:30;1.60;99.90
21298;DHT22;10808;48.010;11.326;2022-12-10T15:47:10;1.50;99.90
21298;DHT22;10808;48.010;11.326;2022-12-10T15:49:38;1.50;99.90
21298;DHT22;10808;48.010;11.326;2022-12-10T15:52:05;1.50;99.90
21298;DHT22;10808;48.010;11.326;2022-12-10T15:54:39;1.50;99.90
21298;DHT22;10808;48.010;11.326;2022-12-10T15:57:12;1.40;99.90
21298;DHT22;10808;48.010;11.326;2022-12-10T15:59:39;1.40;99.90
21298;DHT22;10808;48.010;11.326;2022-12-10T16:02:37;1.40;99.90
21298;DHT22;10808;48.010;11.326;2022-12-10T16:05:11;1.50;99.90
21298;DHT22;10808;48.010;11.326;2022-12-10T16:07:39;1.50;99.90
21298;DHT22;10808;48.010;11.326;2022-12-10T16:10:06;1.50;99.90
21298;DHT22;10808;48.010;11.326;2022-12-10T16:12:35;1.50;99.90
21298;DHT22;10808;48.010;11.326;2022-12-10T16:15:02;1.40;99.90
21298;DHT22;10808;48.010;11.326;2022-12-10T16:17:29;1.40;99.90
21298;DHT22;10808;48.010;11.326;2022-12-10T16:20:00;1.30;99.90
21298;DHT22;10808;48.010;11.326;2022-12-10T16:22:31;1.40;99.90
21298;DHT22;10808;48.010;11.326;2022-12-10T16:24:57;1.40;99.90
21298;DHT22;10808;48.010;11.326;2022-12-10T16:27:23;1.40;99.90
21298;DHT22;10808;48.010;11.326;2022-12-10T16:29:49;1.30;99.90
21298;DHT22;10808;48.010;11.326;2022-12-10T16:32:15;1.30;99.90
21298;DHT22;10808;48.010;11.326;2022-12-10T16:34:41;1.30;99.90
21298;DHT22;10808;48.010;11.326;2022-12-10T16:37:09;1.20;99.90
21298;DHT22;10808;48.010;11.326;2022-12-10T16:39:35;1.10;99.90
21298;DHT22;10808;48.010;11.326;2022-12-10T16:42:02;1.10;99.90
21298;DHT22;10808;48.010;11.326;2022-12-10T16:44:28;1.10;99.90
21298;DHT22;10808;48.010;11.326;2022-12-10T16:46:54;1.10;99.90
21298;DHT22;10808;48.010;11.326;2022-12-10T16:49:20;1.10;99.90
21298;DHT22;10808;48.010;11.326;2022-12-10T16:51:46;1.00;99.90
21298;DHT22;10808;48.010;11.326;2022-12-10T16:54:12;1.00;99.90
21298;DHT22;10808;48.010;11.326;2022-12-10T16:56:39;1.00;99.90
21298;DHT22;10808;48.010;11.326;2022-12-10T16:59:07;1.00;99.90
21298;DHT22;10808;48.010;11.326;2022-12-10T17:01:38;1.10;99.90
21298;DHT22;10808;48.010;11.326;2022-12-10T17:04:04;1.10;99.90
21298;DHT22;10808;48.010;11.326;2022-12-10T17:06:33;1.10;99.90
21298;DHT22;10808;48.010;11.326;2022-12-10T17:08:59;1.10;99.90
21298;DHT22;10808;48.010;11.326;2022-12-10T17:11:28;1.10;99.90
21298;DHT22;10808;48.010;11.326;2022-12-10T17:14:32;1.10;99.90
21298;DHT22;10808;48.010;11.326;2022-12-10T17:16:59;1.00;99.90
21298;DHT22;10808;48.010;11.326;2022-12-10T17:19:35;0.90;99.90
21298;DHT22;10808;48.010;11.326;2022-12-10T17:22:02;0.90;99.90
21298;DHT22;10808;48.010;11.326;2022-12-10T17:24:28;0.90;99.90
21298;DHT22;10808;48.010;11.326;2022-12-10T17:26:58;0.90;99.90
21298;DHT22;10808;48.010;11.326;2022-12-10T17:29:33;1.00;99.90
21298;DHT22;10808;48.010;11.326;2022-12-10T17:32:02;1.10;99.90
21298;DHT22;10808;48.010;11.326;2022-12-10T17:34:28;1.10;99.90
21298;DHT22;10808;48.010;11.326;2022-12-10T17:36:55;1.10;99.90